Time;durP1;ratioP1;P1;durP2;ratioP2;P2;SDS_P1;SDS_P2;PMS_P1;PMS_P2;Temp;Humidity;BMP_temperature;BMP_pressure;BME280_temperature;BME280_humidity;BME280_pressure;Samples;Min_cycle;Max_cycle;Signal;HPM_P1;HPM_P2
2022/01/12 00:00:19;;;;;;;8.35;6.30;;;;;;;;;;5111497;28;20142;-78
2022/01/12 00:02:45;;;;;;;8.98;6.28;;;;;;;;;;5111818;28;20503;-77
2022/01/12 00:05:12;;;;;;;10.35;7.03;;;;;;;;;;5111597;28;20020;-77
2022/01/12 00:07:38;;;;;;;9.88;5.75;;;;;;;;;;5111381;28;20028;-78
2022/01/12 00:10:04;;;;;;;7.10;5.30;;;;;;;;;;5110700;28;20030;-77
2022/01/12 00:12:30;;;;;;;8.35;6.50;;;;;;;;;;5110248;28;20034;-78
2022/01/12 00:14:56;;;;;;;7.63;5.28;;;;;;;;;;5110583;28;20114;-75
2022/01/12 00:17:22;;;;;;;9.27;6.63;;;;;;;;;;5110286;28;20067;-78
2022/01/12 00:19:48;;;;;;;8.68;7.15;;;;;;;;;;5110905;28;20043;-75
2022/01/12 00:22:14;;;;;;;9.63;6.90;;;;;;;;;;5111732;28;20027;-77
2022/01/12 00:25:04;;;;;;;7.55;5.57;;;;;;;;;;5111129;28;20077;-78
2022/01/12 00:33:16;;;;;;;7.25;5.15;;;;;;;;;;5111302;28;20606;-77
2022/01/12 00:35:44;;;;;;;8.15;6.05;;;;;;;;;;5111494;28;20031;-76
2022/01/12 00:38:11;;;;;;;8.48;5.43;;;;;;;;;;5111143;28;20042;-77
2022/01/12 00:40:42;;;;;;;9.60;6.28;;;;;;;;;;5111054;28;20389;-78
2022/01/12 00:43:08;;;;;;;7.00;5.47;;;;;;;;;;5110945;28;20038;-77
2022/01/12 00:45:37;;;;;;;8.38;6.35;;;;;;;;;;5110956;28;20023;-78
2022/01/12 00:48:03;;;;;;;7.22;5.43;;;;;;;;;;5096202;28;20023;-77
2022/01/12 00:50:29;;;;;;;7.65;5.75;;;;;;;;;;5096481;28;20433;-77
2022/01/12 00:52:55;;;;;;;7.60;5.78;;;;;;;;;;5114877;28;20027;-77
2022/01/12 00:55:21;;;;;;;7.82;4.93;;;;;;;;;;5114794;28;20048;-76
2022/01/12 00:57:47;;;;;;;8.35;5.65;;;;;;;;;;5114878;28;20088;-75
2022/01/12 01:00:13;;;;;;;7.75;5.30;;;;;;;;;;5115155;28;20074;-75
2022/01/12 01:02:39;;;;;;;8.32;5.82;;;;;;;;;;5114568;28;20053;-75
2022/01/12 01:05:06;;;;;;;8.88;6.28;;;;;;;;;;5114765;28;20049;-77
2022/01/12 01:07:32;;;;;;;6.93;4.75;;;;;;;;;;5114274;28;20517;-76
2022/01/12 01:10:05;;;;;;;7.50;5.70;;;;;;;;;;5114663;28;20031;-77
2022/01/12 01:12:32;;;;;;;8.23;5.55;;;;;;;;;;5114358;28;20019;-76
2022/01/12 01:15:10;;;;;;;7.05;5.53;;;;;;;;;;5096170;28;20084;-77
2022/01/12 01:25:40;;;;;;;8.02;5.03;;;;;;;;;;5114101;28;20042;-77
2022/01/12 01:28:06;;;;;;;8.25;5.70;;;;;;;;;;5114171;28;20463;-77
2022/01/12 01:30:35;;;;;;;7.35;5.57;;;;;;;;;;5095742;28;20020;-76
2022/01/12 01:33:05;;;;;;;7.40;5.65;;;;;;;;;;5114180;28;20030;-76
2022/01/12 01:35:32;;;;;;;6.57;5.68;;;;;;;;;;5095675;28;20039;-76
2022/01/12 01:37:59;;;;;;;8.80;5.43;;;;;;;;;;5114027;28;20475;-76
2022/01/12 01:40:26;;;;;;;7.28;5.50;;;;;;;;;;5113869;28;20129;-76
2022/01/12 01:53:36;;;;;;;6.30;5.45;;;;;;;;;;5113508;28;20544;-76
2022/01/12 01:56:03;;;;;;;6.22;4.93;;;;;;;;;;5113575;28;20065;-76
2022/01/12 01:58:29;;;;;;;7.35;5.50;;;;;;;;;;5113016;28;20081;-76
2022/01/12 02:00:55;;;;;;;6.45;4.97;;;;;;;;;;5113745;28;20429;-76
2022/01/12 02:03:23;;;;;;;7.55;5.32;;;;;;;;;;5113472;28;20036;-76
2022/01/12 02:05:50;;;;;;;8.95;5.75;;;;;;;;;;5113658;28;20019;-76
2022/01/12 02:08:15;;;;;;;7.10;5.60;;;;;;;;;;5113875;28;20425;-76
2022/01/12 02:10:41;;;;;;;8.18;5.05;;;;;;;;;;5113046;28;20030;-77
2022/01/12 02:13:09;;;;;;;6.30;4.60;;;;;;;;;;5113366;28;20080;-76
2022/01/12 02:15:35;;;;;;;6.60;5.10;;;;;;;;;;5113121;28;20024;-76
2022/01/12 02:37:02;;;;;;;7.00;4.90;;;;;;;;;;5112711;28;20050;-76
2022/01/12 02:42:17;;;;;;;6.75;4.57;;;;;;;;;;5113237;28;20050;-77
2022/01/12 02:55:41;;;;;;;6.90;4.53;;;;;;;;;;5112537;28;20023;-77
2022/01/12 02:58:07;;;;;;;8.90;5.40;;;;;;;;;;5112590;28;20031;-76
2022/01/12 03:01:00;;;;;;;6.05;5.00;;;;;;;;;;5112349;28;20387;-76
2022/01/12 03:03:22;;;;;;;;;;;;;;;;;;5112067;28;20399;-76
2022/01/12 03:05:58;;;;;;;5.95;5.05;;;;;;;;;;5112667;28;19904;-76
2022/01/12 03:08:26;;;;;;;6.63;4.90;;;;;;;;;;5111921;28;20023;-76
2022/01/12 03:10:52;;;;;;;7.38;5.25;;;;;;;;;;5111906;28;20081;-77
2022/01/12 03:13:18;;;;;;;6.57;4.78;;;;;;;;;;5094012;28;20023;-76
2022/01/12 03:15:47;;;;;;;6.78;5.00;;;;;;;;;;5112569;28;20030;-76
2022/01/12 03:18:13;;;;;;;6.63;4.80;;;;;;;;;;5112467;28;20032;-76
2022/01/12 03:20:39;;;;;;;6.60;4.75;;;;;;;;;;5111927;28;20020;-76
2022/01/12 03:23:05;;;;;;;6.47;4.78;;;;;;;;;;5112175;28;20023;-76
2022/01/12 03:25:31;;;;;;;6.13;4.63;;;;;;;;;;5111890;28;20398;-76
2022/01/12 03:28:01;;;;;;;5.25;4.47;;;;;;;;;;5112115;28;20027;-76
2022/01/12 03:30:34;;;;;;;6.72;5.32;;;;;;;;;;5111795;28;20038;-76
2022/01/12 03:33:12;;;;;;;8.27;5.40;;;;;;;;;;5111890;28;20024;-76
2022/01/12 03:36:12;;;;;;;6.55;4.85;;;;;;;;;;5111602;28;20024;-76
2022/01/12 03:38:37;;;;;;;5.88;4.78;;;;;;;;;;5111458;28;20550;-76
2022/01/12 03:41:03;;;;;;;5.72;4.43;;;;;;;;;;5111800;28;20062;-76
2022/01/12 03:43:29;;;;;;;5.25;4.38;;;;;;;;;;5111410;28;20032;-77
2022/01/12 03:45:55;;;;;;;6.20;4.70;;;;;;;;;;5111804;28;20080;-76
2022/01/12 03:48:21;;;;;;;7.68;5.18;;;;;;;;;;5111609;28;20073;-77
2022/01/12 03:50:48;;;;;;;7.03;5.53;;;;;;;;;;5111929;28;20027;-76
2022/01/12 03:53:14;;;;;;;6.68;5.13;;;;;;;;;;5112008;28;20012;-76
2022/01/12 03:55:41;;;;;;;8.13;4.60;;;;;;;;;;5111295;28;20051;-77
2022/01/12 03:58:10;;;;;;;7.18;5.20;;;;;;;;;;5111596;28;20073;-77
2022/01/12 04:00:36;;;;;;;6.38;4.93;;;;;;;;;;5111285;28;20399;-76
2022/01/12 04:03:05;;;;;;;6.25;4.70;;;;;;;;;;5111605;28;20019;-76
2022/01/12 04:08:19;;;;;;;6.40;4.65;;;;;;;;;;5111407;28;20028;-76
2022/01/12 04:10:45;;;;;;;6.53;4.70;;;;;;;;;;5111991;28;20020;-76
2022/01/12 04:13:13;;;;;;;6.45;4.47;;;;;;;;;;5111467;28;20024;-76
2022/01/12 04:15:39;;;;;;;6.28;4.50;;;;;;;;;;5093075;28;20030;-76
2022/01/12 04:18:05;;;;;;;6.65;4.97;;;;;;;;;;5111469;28;20380;-76
2022/01/12 04:20:31;;;;;;;5.97;4.30;;;;;;;;;;5094134;28;20110;-76
2022/01/12 04:25:41;;;;;;;5.47;4.40;;;;;;;;;;5113983;28;20035;-76
2022/01/12 04:28:07;;;;;;;7.00;4.93;;;;;;;;;;5115353;28;20039;-76
2022/01/12 04:30:33;;;;;;;7.32;5.03;;;;;;;;;;5115250;28;20502;-76
2022/01/12 04:32:59;;;;;;;6.10;4.50;;;;;;;;;;5115443;28;20085;-76
2022/01/12 04:35:30;;;;;;;6.53;5.07;;;;;;;;;;5115193;28;20111;-76
2022/01/12 04:37:56;;;;;;;6.47;4.57;;;;;;;;;;5115237;28;20376;-76
2022/01/12 04:40:22;;;;;;;5.78;4.32;;;;;;;;;;5115144;28;20399;-76
2022/01/12 04:42:48;;;;;;;6.00;4.47;;;;;;;;;;5115213;28;20024;-76
2022/01/12 04:45:19;;;;;;;6.85;5.10;;;;;;;;;;5115101;28;20042;-76
2022/01/12 04:47:58;;;;;;;6.43;4.68;;;;;;;;;;5115514;28;20012;-75
2022/01/12 04:50:25;;;;;;;7.25;5.15;;;;;;;;;;5096632;28;20032;-75
2022/01/12 04:52:52;;;;;;;6.60;4.78;;;;;;;;;;5115070;28;20019;-75
2022/01/12 04:55:18;;;;;;;7.07;4.88;;;;;;;;;;5115093;28;20126;-75
2022/01/12 04:57:45;;;;;;;6.68;4.88;;;;;;;;;;5096852;28;20080;-76
2022/01/12 05:00:16;;;;;;;6.10;4.47;;;;;;;;;;5114921;28;20391;-76
2022/01/12 05:08:21;;;;;;;7.43;5.03;;;;;;;;;;5114664;28;20105;-76
2022/01/12 05:13:33;;;;;;;7.43;4.72;;;;;;;;;;5114498;28;20047;-76
2022/01/12 05:16:03;;;;;;;6.22;4.38;;;;;;;;;;5114362;28;20028;-76
2022/01/12 05:18:29;;;;;;;7.18;4.68;;;;;;;;;;5114300;28;20478;-76
2022/01/12 05:20:55;;;;;;;6.43;4.97;;;;;;;;;;5114550;28;20098;-77
2022/01/12 05:23:22;;;;;;;7.28;5.18;;;;;;;;;;5114272;28;20055;-77
2022/01/12 05:25:48;;;;;;;5.65;4.53;;;;;;;;;;5114742;28;20039;-77
2022/01/12 05:28:16;;;;;;;6.45;4.85;;;;;;;;;;5114280;28;20068;-76
2022/01/12 05:30:42;;;;;;;7.53;4.85;;;;;;;;;;5114318;28;20026;-76
2022/01/12 05:33:08;;;;;;;7.43;5.07;;;;;;;;;;5113244;28;20031;-76
2022/01/12 05:35:35;;;;;;;6.07;4.60;;;;;;;;;;5095547;28;20019;-76
2022/01/12 05:38:02;;;;;;;6.60;4.75;;;;;;;;;;5114203;28;20035;-76
2022/01/12 05:40:28;;;;;;;7.72;5.63;;;;;;;;;;5113934;28;20023;-76
2022/01/12 05:42:55;;;;;;;6.75;4.90;;;;;;;;;;5114055;28;20048;-77
2022/01/12 05:45:22;;;;;;;7.15;5.03;;;;;;;;;;5113596;28;20027;-75
2022/01/12 05:50:15;;;;;;;5.80;4.70;;;;;;;;;;5113583;28;20396;-76
2022/01/12 05:52:41;;;;;;;7.22;5.43;;;;;;;;;;5113868;28;20467;-76
2022/01/12 05:55:07;;;;;;;6.95;4.70;;;;;;;;;;5113770;28;20085;-77
2022/01/12 05:57:34;;;;;;;7.07;4.63;;;;;;;;;;5113399;28;20036;-76
2022/01/12 06:00:01;;;;;;;6.97;5.05;;;;;;;;;;5113714;28;20452;-76
2022/01/12 06:02:27;;;;;;;5.55;4.60;;;;;;;;;;5113192;28;20092;-77
2022/01/12 06:04:53;;;;;;;6.95;5.00;;;;;;;;;;5113637;28;20027;-77
2022/01/12 06:07:19;;;;;;;8.63;5.05;;;;;;;;;;5113454;28;20028;-75
2022/01/12 06:09:45;;;;;;;6.20;5.20;;;;;;;;;;5113379;28;20567;-77
2022/01/12 06:12:11;;;;;;;6.28;4.75;;;;;;;;;;5094955;28;20027;-75
2022/01/12 06:14:37;;;;;;;6.90;4.90;;;;;;;;;;5113465;28;20095;-76
2022/01/12 06:17:03;;;;;;;6.63;4.95;;;;;;;;;;5094568;28;20043;-76
2022/01/12 06:19:29;;;;;;;8.02;4.97;;;;;;;;;;5094567;28;20016;-77
2022/01/12 06:21:55;;;;;;;8.82;5.68;;;;;;;;;;5113055;28;20116;-76
2022/01/12 06:24:21;;;;;;;6.47;5.22;;;;;;;;;;5113125;28;20048;-76
2022/01/12 06:26:48;;;;;;;7.50;4.97;;;;;;;;;;5113450;28;20027;-75
2022/01/12 06:31:49;;;;;;;7.07;5.07;;;;;;;;;;5113249;28;20114;-77
2022/01/12 06:34:15;;;;;;;7.75;5.22;;;;;;;;;;5094447;28;20076;-77
2022/01/12 06:36:41;;;;;;;7.30;5.05;;;;;;;;;;5113011;28;20959;-77
2022/01/12 06:39:09;;;;;;;7.00;5.20;;;;;;;;;;5112879;28;20033;-76
2022/01/12 06:41:36;;;;;;;8.20;5.95;;;;;;;;;;5094421;28;20024;-78
2022/01/12 06:44:02;;;;;;;7.47;5.28;;;;;;;;;;5112665;28;20035;-77
2022/01/12 06:46:30;;;;;;;6.90;4.97;;;;;;;;;;5112584;28;20089;-77
2022/01/12 06:48:56;;;;;;;6.90;4.97;;;;;;;;;;5112713;28;20428;-76
2022/01/12 06:51:23;;;;;;;7.07;4.85;;;;;;;;;;5112517;28;20083;-77
2022/01/12 06:53:49;;;;;;;7.75;5.03;;;;;;;;;;5112995;28;20034;-76
2022/01/12 06:56:17;;;;;;;9.20;6.25;;;;;;;;;;5112299;28;20020;-77
2022/01/12 06:58:43;;;;;;;7.10;5.03;;;;;;;;;;5112590;28;20027;-77
2022/01/12 07:01:09;;;;;;;12.45;5.40;;;;;;;;;;5112470;28;20035;-77
2022/01/12 07:03:35;;;;;;;8.60;5.78;;;;;;;;;;5112037;28;20023;-77
2022/01/12 07:06:02;;;;;;;8.52;5.70;;;;;;;;;;5112389;28;20031;-77
2022/01/12 07:08:28;;;;;;;7.72;5.10;;;;;;;;;;5111724;28;20491;-77
2022/01/12 07:10:54;;;;;;;7.28;5.35;;;;;;;;;;5111554;28;20027;-76
2022/01/12 07:13:20;;;;;;;9.93;5.03;;;;;;;;;;5111544;28;20073;-77
2022/01/12 07:15:46;;;;;;;7.82;5.20;;;;;;;;;;5111314;28;20032;-75
2022/01/12 07:18:12;;;;;;;9.38;5.47;;;;;;;;;;5112021;28;20353;-76
2022/01/12 07:20:38;;;;;;;7.97;5.70;;;;;;;;;;5112082;28;20020;-76
2022/01/12 07:23:04;;;;;;;7.57;5.82;;;;;;;;;;5112075;28;20088;-77
2022/01/12 07:25:30;;;;;;;8.27;5.90;;;;;;;;;;5112756;28;20024;-76
2022/01/12 07:27:56;;;;;;;8.75;5.53;;;;;;;;;;5093706;28;20075;-76
2022/01/12 07:30:24;;;;;;;7.22;5.68;;;;;;;;;;5111451;28;20028;-76
2022/01/12 07:32:50;;;;;;;8.23;5.70;;;;;;;;;;5112199;28;20027;-77
2022/01/12 07:35:16;;;;;;;8.00;6.18;;;;;;;;;;5111563;28;20038;-76
2022/01/12 07:37:42;;;;;;;9.63;6.05;;;;;;;;;;5111827;28;20031;-77
2022/01/12 07:40:08;;;;;;;7.70;5.38;;;;;;;;;;5111709;28;20102;-75
2022/01/12 07:42:35;;;;;;;7.40;5.45;;;;;;;;;;5111604;28;20023;-75
2022/01/12 07:45:01;;;;;;;8.13;5.78;;;;;;;;;;5111725;28;20587;-76
2022/01/12 07:47:28;;;;;;;8.30;5.97;;;;;;;;;;5111322;28;20030;-76
2022/01/12 07:49:55;;;;;;;14.00;6.57;;;;;;;;;;5111287;28;20024;-75
2022/01/12 07:52:21;;;;;;;7.85;5.40;;;;;;;;;;5111698;28;20022;-77
2022/01/12 07:54:47;;;;;;;7.72;5.88;;;;;;;;;;5110204;28;20033;-77
2022/01/12 07:57:13;;;;;;;8.85;6.20;;;;;;;;;;5091364;28;20438;-76
2022/01/12 07:59:39;;;;;;;9.70;6.38;;;;;;;;;;5109942;28;20023;-76
2022/01/12 08:02:05;;;;;;;8.07;5.72;;;;;;;;;;5110050;28;20028;-77
2022/01/12 08:04:31;;;;;;;9.18;6.07;;;;;;;;;;5109736;28;20020;-77
2022/01/12 08:06:57;;;;;;;9.05;6.32;;;;;;;;;;5111033;28;20024;-77
2022/01/12 08:09:23;;;;;;;8.75;6.22;;;;;;;;;;5111675;28;20107;-77
2022/01/12 08:11:49;;;;;;;11.00;6.82;;;;;;;;;;5093467;28;20027;-77
2022/01/12 08:14:15;;;;;;;9.13;6.47;;;;;;;;;;5093093;28;20028;-76
2022/01/12 08:16:44;;;;;;;9.15;5.95;;;;;;;;;;5108718;28;20028;-75
2022/01/12 08:19:10;;;;;;;9.15;6.43;;;;;;;;;;5110160;28;20035;-76
2022/01/12 08:21:36;;;;;;;11.23;6.88;;;;;;;;;;5109709;28;20043;-75
2022/01/12 08:24:02;;;;;;;9.23;6.47;;;;;;;;;;5112122;28;20024;-76
2022/01/12 08:26:29;;;;;;;8.32;6.00;;;;;;;;;;5101078;28;20028;-79
2022/01/12 08:28:55;;;;;;;10.50;6.93;;;;;;;;;;5089089;28;20028;-75
2022/01/12 08:31:21;;;;;;;8.93;6.68;;;;;;;;;;5088985;28;20154;-77
2022/01/12 08:33:48;;;;;;;16.48;7.50;;;;;;;;;;5089294;28;20545;-75
2022/01/12 08:36:14;;;;;;;11.32;7.10;;;;;;;;;;5109115;28;20499;-76
2022/01/12 08:38:40;;;;;;;10.20;7.00;;;;;;;;;;5109599;28;20076;-76
2022/01/12 08:41:06;;;;;;;10.77;6.50;;;;;;;;;;5107236;28;20012;-76
2022/01/12 08:43:32;;;;;;;11.02;6.53;;;;;;;;;;5109259;28;20031;-76
2022/01/12 08:45:58;;;;;;;10.07;6.07;;;;;;;;;;5109750;28;20418;-77
2022/01/12 08:48:24;;;;;;;9.82;7.07;;;;;;;;;;5110561;28;20077;-76
2022/01/12 08:50:50;;;;;;;11.23;7.65;;;;;;;;;;5091956;28;20024;-74
2022/01/12 08:53:16;;;;;;;8.55;6.45;;;;;;;;;;5108000;28;20500;-76
2022/01/12 08:55:42;;;;;;;7.85;6.05;;;;;;;;;;5108600;28;20433;-76
2022/01/12 08:58:08;;;;;;;10.35;7.03;;;;;;;;;;5109400;28;20034;-76
2022/01/12 09:00:34;;;;;;;8.75;6.88;;;;;;;;;;5105407;28;20028;-77
2022/01/12 09:03:01;;;;;;;10.35;6.93;;;;;;;;;;5108608;28;20035;-76
2022/01/12 09:05:28;;;;;;;10.85;6.80;;;;;;;;;;5090922;28;20027;-76
2022/01/12 09:07:55;;;;;;;10.15;7.50;;;;;;;;;;5110972;28;20020;-76
2022/01/12 09:10:21;;;;;;;12.20;7.80;;;;;;;;;;5114037;28;20035;-76
2022/01/12 09:12:47;;;;;;;10.77;7.20;;;;;;;;;;5114677;28;20024;-76
2022/01/12 09:15:14;;;;;;;12.40;7.05;;;;;;;;;;5113753;28;20023;-76
2022/01/12 09:17:40;;;;;;;9.18;6.93;;;;;;;;;;5114579;28;20036;-76
2022/01/12 09:20:07;;;;;;;11.02;7.10;;;;;;;;;;5096070;28;20488;-77
2022/01/12 09:22:37;;;;;;;11.98;7.80;;;;;;;;;;5113829;28;20028;-76
2022/01/12 09:25:04;;;;;;;11.90;7.22;;;;;;;;;;5114179;28;20019;-76
2022/01/12 09:27:30;;;;;;;12.27;6.57;;;;;;;;;;5114176;28;20145;-76
2022/01/12 09:29:56;;;;;;;11.25;7.05;;;;;;;;;;5114248;28;20098;-76
2022/01/12 09:32:22;;;;;;;11.75;7.72;;;;;;;;;;5114329;28;20114;-76
2022/01/12 09:34:48;;;;;;;11.32;8.02;;;;;;;;;;5114281;28;20073;-75
2022/01/12 09:37:14;;;;;;;10.52;6.57;;;;;;;;;;5113884;28;20039;-76
2022/01/12 09:39:41;;;;;;;10.15;7.43;;;;;;;;;;5113230;28;20022;-76
2022/01/12 09:42:07;;;;;;;11.45;7.00;;;;;;;;;;5095860;28;20105;-76
2022/01/12 09:44:35;;;;;;;10.45;7.32;;;;;;;;;;5113589;28;20027;-75
2022/01/12 09:47:02;;;;;;;10.45;7.18;;;;;;;;;;5113134;28;20543;-76
2022/01/12 09:49:29;;;;;;;11.80;7.25;;;;;;;;;;5113701;28;20102;-76
2022/01/12 09:51:55;;;;;;;10.07;7.32;;;;;;;;;;5114259;28;20059;-76
2022/01/12 09:54:21;;;;;;;11.30;7.38;;;;;;;;;;5095597;28;20019;-76
2022/01/12 09:56:47;;;;;;;9.43;7.25;;;;;;;;;;5113622;28;20059;-75
2022/01/12 09:59:14;;;;;;;14.00;8.15;;;;;;;;;;5113100;28;20027;-76
2022/01/12 10:01:43;;;;;;;9.88;7.57;;;;;;;;;;5113840;28;20030;-76
2022/01/12 10:04:12;;;;;;;10.00;7.60;;;;;;;;;;5113567;28;20015;-76
2022/01/12 10:06:40;;;;;;;13.23;7.65;;;;;;;;;;5112605;28;20099;-75
2022/01/12 10:09:06;;;;;;;11.10;7.47;;;;;;;;;;5113586;28;20497;-76
2022/01/12 10:11:32;;;;;;;11.85;8.00;;;;;;;;;;5112782;28;20307;-76
2022/01/12 10:14:00;;;;;;;9.88;7.05;;;;;;;;;;5110386;28;20023;-75
2022/01/12 10:16:26;;;;;;;11.85;7.63;;;;;;;;;;5094514;28;20031;-76
2022/01/12 10:18:56;;;;;;;10.43;8.00;;;;;;;;;;5113039;28;20103;-76
2022/01/12 10:21:26;;;;;;;11.00;8.07;;;;;;;;;;5113279;28;20020;-76
2022/01/12 10:24:17;;;;;;;10.52;7.95;;;;;;;;;;5095089;28;20512;-75
2022/01/12 10:26:44;;;;;;;11.45;8.10;;;;;;;;;;5112171;28;20012;-76
2022/01/12 10:29:12;;;;;;;15.63;8.60;;;;;;;;;;5112052;28;20027;-76
2022/01/12 10:31:50;;;;;;;11.05;8.32;;;;;;;;;;5094783;28;20432;-76
2022/01/12 10:34:17;;;;;;;12.10;8.30;;;;;;;;;;5112525;28;20032;-75
2022/01/12 10:36:44;;;;;;;10.90;7.93;;;;;;;;;;5112754;28;20049;-75
2022/01/12 10:39:14;;;;;;;11.68;8.35;;;;;;;;;;5112361;28;20028;-76
2022/01/12 10:41:57;;;;;;;13.00;8.20;;;;;;;;;;5111785;28;20028;-76
2022/01/12 10:44:34;;;;;;;13.57;8.45;;;;;;;;;;5111367;28;20039;-75
2022/01/12 10:47:11;;;;;;;10.65;7.45;;;;;;;;;;5111585;28;20020;-74
2022/01/12 10:49:38;;;;;;;11.40;8.25;;;;;;;;;;5109852;28;20169;-76
2022/01/12 10:52:09;;;;;;;11.88;8.48;;;;;;;;;;5112284;28;20061;-75
2022/01/12 10:54:41;;;;;;;11.18;8.45;;;;;;;;;;5111271;28;20031;-76
2022/01/12 10:57:26;;;;;;;14.48;8.25;;;;;;;;;;5110011;27;20403;-76
2022/01/12 11:00:06;;;;;;;16.27;8.00;;;;;;;;;;5112743;28;20023;-76
2022/01/12 11:02:33;;;;;;;11.52;7.88;;;;;;;;;;5112237;28;20032;-75
2022/01/12 11:05:00;;;;;;;28.55;8.93;;;;;;;;;;5112565;28;20055;-75
2022/01/12 11:07:27;;;;;;;18.77;8.32;;;;;;;;;;5111907;28;20027;-75
2022/01/12 11:09:58;;;;;;;18.10;9.27;;;;;;;;;;5112698;28;20121;-76
2022/01/12 11:12:24;;;;;;;19.52;8.98;;;;;;;;;;5112471;28;20023;-76
2022/01/12 11:14:50;;;;;;;18.23;8.57;;;;;;;;;;5112360;28;20051;-76
2022/01/12 11:17:17;;;;;;;21.67;9.60;;;;;;;;;;5093790;28;20040;-76
2022/01/12 11:19:51;;;;;;;25.10;9.23;;;;;;;;;;5112208;28;20019;-76
2022/01/12 11:22:21;;;;;;;25.10;9.68;;;;;;;;;;5112002;28;20023;-75
2022/01/12 11:24:47;;;;;;;27.50;10.15;;;;;;;;;;5094284;28;20047;-76
2022/01/12 11:27:20;;;;;;;41.50;11.82;;;;;;;;;;5111162;28;20110;-76
2022/01/12 11:29:47;;;;;;;24.63;11.02;;;;;;;;;;5109378;28;20031;-74
2022/01/12 11:32:21;;;;;;;29.35;10.20;;;;;;;;;;5110178;28;20433;-74
2022/01/12 11:34:58;;;;;;;22.25;10.00;;;;;;;;;;5107966;28;20012;-75
2022/01/12 11:37:24;;;;;;;26.70;10.68;;;;;;;;;;5110127;28;20076;-75
2022/01/12 11:39:50;;;;;;;26.50;10.52;;;;;;;;;;5110586;28;20019;-74
2022/01/12 11:42:18;;;;;;;23.85;10.40;;;;;;;;;;5110179;28;20076;-75
2022/01/12 11:44:44;;;;;;;20.77;9.25;;;;;;;;;;5110021;28;20796;-75
2022/01/12 11:47:15;;;;;;;16.88;9.23;;;;;;;;;;5110671;28;20023;-75
2022/01/12 11:49:43;;;;;;;18.33;9.60;;;;;;;;;;5110211;28;20030;-75
2022/01/12 11:52:25;;;;;;;21.38;10.70;;;;;;;;;;5109926;28;20106;-75
2022/01/12 11:54:53;;;;;;;32.78;9.95;;;;;;;;;;5108154;28;20023;-76
2022/01/12 11:57:20;;;;;;;19.25;9.77;;;;;;;;;;5109521;28;20035;-76
2022/01/12 11:59:52;;;;;;;18.60;10.27;;;;;;;;;;5107291;28;20020;-76
2022/01/12 12:02:19;;;;;;;20.42;9.68;;;;;;;;;;5109679;28;20107;-79
2022/01/12 12:04:59;;;;;;;18.63;9.90;;;;;;;;;;5107228;28;20491;-77
2022/01/12 12:07:25;;;;;;;17.98;9.50;;;;;;;;;;5109927;28;20023;-77
2022/01/12 12:09:53;;;;;;;17.80;9.15;;;;;;;;;;5110647;28;20059;-76
2022/01/12 12:12:23;;;;;;;17.73;9.10;;;;;;;;;;5109666;28;20433;-79
2022/01/12 12:14:50;;;;;;;16.98;9.07;;;;;;;;;;5107733;28;20821;-80
2022/01/12 12:17:17;;;;;;;17.13;9.10;;;;;;;;;;5109500;28;20031;-77
2022/01/12 12:19:44;;;;;;;14.48;8.52;;;;;;;;;;5109804;28;20487;-78
2022/01/12 12:22:12;;;;;;;14.23;8.35;;;;;;;;;;5110849;28;20023;-78
2022/01/12 12:24:38;;;;;;;14.30;9.10;;;;;;;;;;5110849;28;20479;-77
2022/01/12 12:27:05;;;;;;;15.90;9.57;;;;;;;;;;5111900;28;20034;-77
2022/01/12 12:29:31;;;;;;;16.35;9.38;;;;;;;;;;5110324;28;20035;-80
2022/01/12 12:31:57;;;;;;;16.27;9.38;;;;;;;;;;5110182;28;20023;-81
2022/01/12 12:34:25;;;;;;;15.23;9.38;;;;;;;;;;5109463;28;20030;-77
2022/01/12 12:37:00;;;;;;;18.40;8.05;;;;;;;;;;5109408;28;20032;-78
2022/01/12 12:39:29;;;;;;;15.93;9.55;;;;;;;;;;5110037;28;20028;-79
2022/01/12 12:41:55;;;;;;;14.00;8.48;;;;;;;;;;5111627;28;20562;-78
2022/01/12 12:44:21;;;;;;;14.10;8.50;;;;;;;;;;5113054;28;20115;-77
2022/01/12 12:46:48;;;;;;;14.23;8.98;;;;;;;;;;5095376;28;20024;-79
2022/01/12 12:49:14;;;;;;;14.15;8.45;;;;;;;;;;5112760;28;20024;-79
2022/01/12 12:51:40;;;;;;;13.57;8.27;;;;;;;;;;5113722;28;20027;-77
2022/01/12 12:54:06;;;;;;;15.18;8.65;;;;;;;;;;5113225;28;20020;-78
2022/01/12 12:56:40;;;;;;;15.75;9.13;;;;;;;;;;5112977;28;20020;-77
2022/01/12 12:59:07;;;;;;;19.98;10.73;;;;;;;;;;5113687;28;20015;-79
2022/01/12 13:01:33;;;;;;;15.30;9.85;;;;;;;;;;5113034;28;20047;-78
2022/01/12 13:04:00;;;;;;;18.40;10.32;;;;;;;;;;5113133;28;20027;-77
2022/01/12 13:06:30;;;;;;;18.63;10.30;;;;;;;;;;5114365;28;20430;-80
2022/01/12 13:09:04;;;;;;;17.92;10.07;;;;;;;;;;5115090;28;20015;-77
2022/01/12 13:11:41;;;;;;;16.13;10.05;;;;;;;;;;5113885;28;20024;-77
2022/01/12 13:14:09;;;;;;;17.98;10.02;;;;;;;;;;5113165;28;20066;-77
2022/01/12 13:16:35;;;;;;;15.68;10.07;;;;;;;;;;5112532;28;20035;-76
2022/01/12 13:19:07;;;;;;;15.52;10.07;;;;;;;;;;5112969;28;20015;-78
2022/01/12 13:21:37;;;;;;;18.98;11.18;;;;;;;;;;5112653;28;20015;-78
2022/01/12 13:24:04;;;;;;;14.10;9.95;;;;;;;;;;5112848;28;20452;-77
2022/01/12 13:26:36;;;;;;;16.73;11.02;;;;;;;;;;5112670;28;20049;-77
2022/01/12 13:29:05;;;;;;;18.80;10.70;;;;;;;;;;5112678;28;20020;-77
2022/01/12 13:31:31;;;;;;;19.90;11.02;;;;;;;;;;5112396;28;20032;-77
2022/01/12 13:33:58;;;;;;;14.80;10.05;;;;;;;;;;5112895;28;20020;-76
2022/01/12 13:36:25;;;;;;;15.35;9.85;;;;;;;;;;5109518;28;20024;-77
2022/01/12 13:39:05;;;;;;;17.13;10.38;;;;;;;;;;5112855;28;20077;-77
2022/01/12 13:41:32;;;;;;;15.52;11.32;;;;;;;;;;5111500;28;20107;-76
2022/01/12 13:44:07;;;;;;;17.42;11.55;;;;;;;;;;5114340;28;20032;-78
2022/01/12 13:46:35;;;;;;;15.98;10.23;;;;;;;;;;5113816;28;20036;-74
2022/01/12 13:51:37;;;;;;;14.07;9.45;;;;;;;;;;5113451;28;20869;-76
2022/01/12 13:54:15;;;;;;;17.60;10.73;;;;;;;;;;5113120;28;20114;-77
2022/01/12 13:56:43;;;;;;;17.00;11.40;;;;;;;;;;5095302;28;20034;-77
2022/01/12 13:59:10;;;;;;;18.15;10.88;;;;;;;;;;5113825;28;20038;-74
2022/01/12 14:01:37;;;;;;;16.80;10.82;;;;;;;;;;5113620;28;20028;-75
2022/01/12 14:04:12;;;;;;;17.75;11.25;;;;;;;;;;5113800;28;20526;-75
2022/01/12 14:06:40;;;;;;;17.40;11.38;;;;;;;;;;5113744;28;20076;-76
2022/01/12 14:09:23;;;;;;;16.75;11.27;;;;;;;;;;5113647;28;20032;-76
2022/01/12 14:11:49;;;;;;;17.25;11.15;;;;;;;;;;5113708;28;20023;-77
2022/01/12 14:14:16;;;;;;;19.42;12.07;;;;;;;;;;5113389;28;20111;-75
2022/01/12 14:16:42;;;;;;;16.55;11.25;;;;;;;;;;5113490;28;20085;-75
2022/01/12 14:19:09;;;;;;;14.98;10.15;;;;;;;;;;5113477;28;20047;-75
2022/01/12 14:21:35;;;;;;;15.90;10.90;;;;;;;;;;5112814;28;20031;-76
2022/01/12 14:24:01;;;;;;;16.95;11.10;;;;;;;;;;5112018;28;20031;-75
2022/01/12 14:26:29;;;;;;;16.67;11.50;;;;;;;;;;5113322;28;20016;-74
2022/01/12 14:28:56;;;;;;;16.77;10.77;;;;;;;;;;5113121;28;20027;-75
2022/01/12 14:31:23;;;;;;;18.20;11.18;;;;;;;;;;5112947;28;20025;-75
2022/01/12 14:33:49;;;;;;;14.90;10.85;;;;;;;;;;5094823;28;20023;-75
2022/01/12 14:36:16;;;;;;;16.42;11.50;;;;;;;;;;5094559;28;20475;-75
2022/01/12 14:38:42;;;;;;;17.75;11.23;;;;;;;;;;5112402;28;20491;-76
2022/01/12 14:41:08;;;;;;;15.25;10.38;;;;;;;;;;5112196;28;20032;-75
2022/01/12 14:43:34;;;;;;;14.07;10.98;;;;;;;;;;5112561;28;20039;-76
2022/01/12 14:46:00;;;;;;;16.75;11.55;;;;;;;;;;5113138;28;20027;-76
2022/01/12 14:48:26;;;;;;;16.38;11.02;;;;;;;;;;5112621;28;20035;-75
2022/01/12 14:50:53;;;;;;;14.32;11.02;;;;;;;;;;5112812;28;20060;-75
2022/01/12 14:53:21;;;;;;;13.38;10.23;;;;;;;;;;5094205;28;20027;-75
2022/01/12 14:55:57;;;;;;;15.40;10.70;;;;;;;;;;5112659;28;20020;-75
2022/01/12 14:58:24;;;;;;;14.68;10.73;;;;;;;;;;5112401;28;20066;-76
2022/01/12 15:00:51;;;;;;;16.30;11.13;;;;;;;;;;5112495;28;20111;-74
2022/01/12 15:03:18;;;;;;;15.63;10.27;;;;;;;;;;5112559;28;20431;-75
2022/01/12 15:05:44;;;;;;;14.13;10.13;;;;;;;;;;5111560;28;20495;-75
2022/01/12 15:08:12;;;;;;;15.15;10.85;;;;;;;;;;5112381;28;20019;-75
2022/01/12 15:10:38;;;;;;;16.17;11.25;;;;;;;;;;5111857;28;20065;-75
2022/01/12 15:13:16;;;;;;;14.48;10.25;;;;;;;;;;5111538;28;20020;-75
2022/01/12 15:15:43;;;;;;;14.35;9.65;;;;;;;;;;5112443;28;20057;-75
2022/01/12 15:18:09;;;;;;;13.45;9.68;;;;;;;;;;5112188;28;20032;-75
2022/01/12 15:20:35;;;;;;;15.02;10.95;;;;;;;;;;5111604;28;20046;-75
2022/01/12 15:23:01;;;;;;;14.18;10.43;;;;;;;;;;5112398;28;20483;-75
2022/01/12 15:25:27;;;;;;;15.95;10.80;;;;;;;;;;5111992;28;20023;-75
2022/01/12 15:27:54;;;;;;;12.50;10.02;;;;;;;;;;5112068;28;20514;-74
2022/01/12 15:30:21;;;;;;;14.65;10.13;;;;;;;;;;5111878;28;20504;-75
2022/01/12 15:32:48;;;;;;;13.85;10.02;;;;;;;;;;5112108;28;20024;-75
2022/01/12 15:35:16;;;;;;;13.00;9.45;;;;;;;;;;5111719;28;20051;-76
2022/01/12 15:37:42;;;;;;;12.30;8.98;;;;;;;;;;5111923;28;20063;-75
2022/01/12 15:40:09;;;;;;;12.70;9.20;;;;;;;;;;5111522;28;20439;-76
2022/01/12 15:42:35;;;;;;;13.80;9.15;;;;;;;;;;5110996;28;20383;-76
2022/01/12 15:45:02;;;;;;;14.40;10.02;;;;;;;;;;5111936;28;20059;-75
2022/01/12 15:47:28;;;;;;;12.57;9.13;;;;;;;;;;5111486;28;20420;-75
2022/01/12 15:49:54;;;;;;;12.55;8.57;;;;;;;;;;5111785;28;20391;-75
2022/01/12 15:52:21;;;;;;;12.45;9.85;;;;;;;;;;5111563;28;20047;-75
2022/01/12 15:54:47;;;;;;;13.15;9.13;;;;;;;;;;5093478;28;20023;-75